This is the latest recevied weather packets stored in our database for station/object K5OLV. If no packets are shown the sender has not sent any weather packets the latest 10 day(s).
| Time | Temp. | Humidity | Pressure | Rain* | Wind** | Luminosity | Snow |
|---|---|---|---|---|---|---|---|
| 1777973395 | 16.11° C | 60% | 1010.7 hPa | 0 mm | - | 0 W/m² | - |
| 1777973092 | 16.11° C | 61% | 1010.8 hPa | 0 mm | - | 0 W/m² | - |
| 1777972790 | 15.56° C | 66% | 1010.8 hPa | 0 mm | - | 0 W/m² | - |
| 1777972487 | 15.56° C | 63% | 1010.7 hPa | 0 mm | - | 0 W/m² | - |
| 1777972185 | 15° C | 67% | 1010.6 hPa | 0 mm | - | 0 W/m² | - |
| 1777971883 | 15.56° C | 65% | 1010.7 hPa | 0 mm | - | 0 W/m² | - |
| 1777971580 | 16.11° C | 61% | 1010.5 hPa | 0 mm | - | 0 W/m² | - |
| 1777971278 | 16.67° C | 59% | 1010.7 hPa | 0 mm | - | 0 W/m² | - |
| 1777970976 | 17.22° C | 58% | 1010.6 hPa | 0 mm | - | 0 W/m² | - |
| 1777970674 | 17.22° C | 58% | 1010.7 hPa | 0 mm | - | 0 W/m² | - |
| 1777970372 | 17.78° C | 55% | 1010.8 hPa | 0 mm | - | 0 W/m² | - |
| 1777970069 | 17.78° C | 54% | 1010.7 hPa | 0 mm | - | 0 W/m² | - |
| 1777969765 | 17.78° C | 55% | 1010.8 hPa | 0 mm | - | 0 W/m² | - |
| 1777969461 | 17.22° C | 55% | 1010.9 hPa | 0 mm | - | 0 W/m² | - |
| 1777969158 | 17.22° C | 55% | 1011 hPa | 0 mm | - | 0 W/m² | - |
| 1777968855 | 17.22° C | 55% | 1010.9 hPa | 0 mm | - | 0 W/m² | - |
| 1777968551 | 17.78° C | 56% | 1011.1 hPa | 0 mm | - | 0 W/m² | - |
| 1777968248 | 17.78° C | 55% | 1011.1 hPa | 0 mm | - | 0 W/m² | - |
| 1777967943 | 17.22° C | 56% | 1011.1 hPa | 0 mm | - | 0 W/m² | - |
| 1777967640 | 17.22° C | 55% | 1011.1 hPa | 0 mm | - | 0 W/m² | - |
| 1777967337 | 17.22° C | 55% | 1011.1 hPa | 0 mm | - | 0 W/m² | - |
| 1777967034 | 17.22° C | 55% | 1011.1 hPa | 0 mm | - | 0 W/m² | - |
| 1777966732 | 17.22° C | 56% | 1011.2 hPa | 0 mm | - | 0 W/m² | - |
| 1777966430 | 17.22° C | 57% | 1011 hPa | 0 mm | - | 0 W/m² | - |
| 1777966126 | 16.67° C | 57% | 1011.1 hPa | 0 mm | - | 0 W/m² | - |
* Rain latest hour (hover to see other rain measurements)
** Current wind speed in m/s (hover to see current wind gust speed)